Station: Toowoomba  

  Atmospheric Gas Attenuation - ITU Rec 676-11   ----------------- dB/100km -----------------
Date Time Temp RH % AH g/m3 Dew Point Wind Direction Speed kph Gust kph Barometer mB Rainfall Since 9am 24GHz 47GHz 76GHz 122GHz 134GHz 241GHz
08/05 12:39 16.3 29 4.02 -1.7 20 22 1019.8 0 9.8 18.8 22.5 58.2 42.0 140.6
08/05 12:30 16.1 27 3.7 -2.9 22 33 1019.8 0 9.1 18.4 21.6 55.6 38.7 128.9
08/05 12:20 16.1 30 4.11 -1.5 24 32 1020 0 10.0 19.0 22.9 59.2 43.0 144.3
08/05 12:09 15.7 29 3.88 -2.3 19 22 1020.1 0 9.5 18.8 22.3 57.5 40.8 136.3
08/05 12:00 15.3 30 3.92 -2.2 22 28 1020.2 0 9.6 18.9 22.5 58.1 41.4 138.5
08/05 11:50 15.1 29 3.74 -2.8 22 26 1020.4 0 9.3 18.7 22.0 56.7 39.6 132.0
08/05 11:40 15 29 3.72 -2.9 17 20 1020.6 0 9.2 18.7 21.9 56.6 39.4 131.5
08/05 11:30 14.4 32 3.96 -2.1 19 24 1020.8 0 9.7 19.1 22.9 59.1 42.3 141.6
08/05 11:20 13.7 31 3.67 -3.1 19 22 1021.3 0 9.1 18.9 22.1 57.1 39.5 131.7
08/05 11:10 13.7 35 4.14 -1.5 19 24 1021.3 0 10.1 19.6 23.7 61.3 44.7 149.9
08/05 11:00 12.7 34 3.79 -2.7 19 26 1021.3 0 9.4 19.3 22.8 58.9 41.3 138.0
08/05 10:50 13 37 4.2 -1.3 22 24 1021.5 0 10.3 19.8 24.1 62.4 45.8 153.6
08/05 10:40 12.3 38 4.13 -1.6 20 30 1021.5 0 10.2 19.8 24.1 62.3 45.4 152.1
08/05 10:30 12.5 39 4.29 -1.1 19 26 1021.5 0 10.5 20.0 24.6 63.6 47.1 158.1
08/05 10:20 12 39 4.16 -1.5 17 22 1021.6 0 10.2 19.9 24.3 62.8 45.9 153.9
08/05 10:10 12.5 41 4.51 -0.4 19 22 1021.7 0 11.0 20.3 25.3 65.7 49.6 167.0
08/05 10:00 11.4 38 3.9 -2.4 17 24 1021.6 0 9.7 19.7 23.6 60.9 43.3 144.6
08/05 09:50 10.8 41 4.05 -1.9 11 15 1021.7 0 10.0 20.1 24.2 62.7 45.3 151.7
08/05 09:40 10.4 40 3.86 -2.6 17 20 1021.9 0 9.6 19.9 23.7 61.3 43.4 144.8
08/05 09:30 10.5 42 4.07 -1.9 17 20 1021.6 0 10.1 20.1 24.4 63.1 45.7 153.1
08/05 09:20 9.9 42 3.92 -2.4 17 19 1021.7 0 9.8 20.1 24.1 62.2 44.3 148.1
08/05 09:10 9.7 43 3.97 -2.3 17 20 1021.8 0 9.9 20.2 24.3 62.8 45.0 150.5
08/05 09:00 9 43 3.79 -2.9 13 22 1021.6 0 9.5 20.1 23.9 61.7 43.3 144.4
08/05 08:50 8.9 45 3.94 -2.4 13 15 1021.8 0 9.9 20.3 24.4 63.2 45.1 150.7
08/05 08:40 8.8 48 4.18 -1.6 13 15 1021.7 0 10.4 20.7 25.3 65.5 48.0 160.9
08/05 08:30 8.4 47 3.99 -2.2 17 22 1021.7 0 10.0 20.5 24.8 64.0 46.0 153.7
08/05 08:20 7.8 50 4.08 -2 19 22 1021.8 0 10.2 20.8 25.3 65.4 47.4 158.7
08/05 08:10 7.4 51 4.06 -2.1 19 20 1021.7 0 10.2 20.8 25.3 65.5 47.4 158.6
08/05 08:00 6.9 54 4.16 -1.7 17 22 1021.4 0 10.4 21.1 25.8 66.9 48.9 163.8
08/05 07:50 6.3 55 4.07 -2.1 11 15 1021.6 0 10.2 21.1 25.7 66.5 48.2 161.2
08/05 07:40 5.9 55 3.97 -2.4 17 19 1021.4 0 10.0 21.0 25.4 65.8 47.2 157.7
08/05 07:30 6 54 3.92 -2.6 13 22 1021 0 9.9 20.9 25.2 65.2 46.5 155.3
08/05 07:20 5.7 55 3.92 -2.6 15 19 1021.3 0 9.9 21.0 25.3 65.5 46.7 155.9
08/05 07:10 5.3 57 3.95 -2.5 15 19 1021.2 0 10.0 21.1 25.5 66.1 47.3 157.9
08/05 07:00 4.8 58 3.89 -2.7 17 22 1021.1 0 9.9 21.1 25.5 65.9 46.8 156.3
08/05 06:50 4.7 58 3.87 -2.8 19 22 1021.3 0 9.8 21.1 25.4 65.8 46.7 155.6
08/05 06:40 4.6 58 3.84 -2.9 17 20 1021.1 0 9.8 21.1 25.3 65.6 46.3 154.5
08/05 06:30 4.8 56 3.76 -3.2 19 24 1020.7 0 9.6 20.9 25.0 64.6 45.2 150.6
08/05 06:20 4.6 57 3.77 -3.2 19 22 1020.7 0 9.6 21.0 25.1 64.9 45.5 151.4
08/05 06:10 4.9 56 3.78 -3.1 19 24 1020.9 0 9.6 20.9 25.0 64.7 45.4 151.3
08/05 06:00 4.7 56 3.73 -3.3 15 26 1020.3 0 9.5 20.9 24.9 64.4 44.9 149.4
08/05 05:50 5 55 3.74 -3.3 15 19 1020.2 0 9.5 20.8 24.8 64.2 44.9 149.3
08/05 05:40 5.2 53 3.65 -3.6 11 17 1020.1 0 9.3 20.7 24.4 63.2 43.6 145.1
08/05 05:30 4.7 55 3.67 -3.6 11 17 1020 0 9.4 20.8 24.6 63.7 44.2 146.8
08/05 05:20 5.1 54 3.7 -3.4 13 17 1020 0 9.5 20.7 24.6 63.7 44.3 147.4
08/05 05:10 5.2 54 3.72 -3.3 15 19 1019.9 0 9.5 20.8 24.7 63.8 44.5 148.0
08/05 05:00 4.8 56 3.76 -3.2 15 20 1019.9 0 9.6 20.9 24.9 64.5 45.2 150.5
08/05 04:50 5 55 3.74 -3.3 17 20 1020 0 9.5 20.8 24.8 64.2 44.8 149.3
08/05 04:40 4.9 56 3.78 -3.1 20 26 1019.7 0 9.6 20.9 25.0 64.6 45.4 151.1
08/05 04:30 4.8 57 3.83 -3 20 30 1019.4 0 9.7 21.0 25.2 65.2 46.0 153.5
08/05 04:20 4.9 57 3.85 -2.9 20 26 1019.6 0 9.8 21.0 25.2 65.3 46.2 154.2
08/05 04:10 5 57 3.88 -2.8 22 26 1019.7 0 9.8 21.0 25.3 65.6 46.5 155.3
08/05 04:00 5 57 3.88 -2.8 28 35 1019.5 0 9.8 21.0 25.3 65.5 46.5 155.2
08/05 03:50 5.2 57 3.93 -2.6 30 32 1019.6 0 9.9 21.1 25.4 65.9 47.0 157.0
08/05 03:40 5.2 56 3.86 -2.8 28 32 1019.7 0 9.8 21.0 25.2 65.2 46.2 154.0
08/05 03:30 5.1 57 3.9 -2.7 20 26 1019.8 0 9.9 21.0 25.4 65.7 46.7 156.0
08/05 03:20 5.1 58 3.97 -2.5 20 22 1019.9 0 10.0 21.1 25.6 66.4 47.6 159.0
08/05 03:10 4.7 61 4.07 -2.2 19 20 1019.8 0 10.3 21.4 26.1 67.7 49.1 164.2
08/05 03:00 5.1 58 3.97 -2.5 15 19 1019.7 0 10.0 21.1 25.6 66.4 47.6 159.0
08/05 02:50 5.4 57 3.98 -2.4 15 17 1019.7 0 10.0 21.1 25.6 66.2 47.5 158.8
08/05 02:40 5.8 55 3.94 -2.5 19 22 1019.7 0 9.9 20.9 25.3 65.5 46.8 156.3
08/05 02:30 5.7 56 3.99 -2.4 15 22 1019.7 0 10.1 21.0 25.5 66.1 47.5 158.7
08/05 02:20 5.8 56 4.01 -2.3 19 20 1019.8 0 10.1 21.0 25.6 66.2 47.7 159.3
08/05 02:09 6.2 55 4.05 -2.2 19 22 1019.8 0 10.2 21.0 25.6 66.3 47.9 160.3
08/05 02:00 6.2 55 4.05 -2.2 17 24 1019.6 0 10.2 21.0 25.6 66.2 47.9 160.2
08/05 01:50 6.4 55 4.1 -2 17 20 1019.9 0 10.3 21.0 25.7 66.6 48.4 162.0
08/05 01:39 6.6 55 4.15 -1.8 19 20 1019.8 0 10.4 21.1 25.8 66.9 48.9 163.8
08/05 01:30 6.7 56 4.26 -1.4 20 26 1019.8 0 10.6 21.2 26.2 67.9 50.2 168.3
08/05 01:20 6.8 56 4.29 -1.3 22 24 1019.7 0 10.7 21.2 26.3 68.1 50.5 169.3
08/05 01:10 6.8 58 4.44 -0.9 20 24 1019.7 0 11.0 21.5 26.8 69.6 52.3 175.8
08/05 01:00 7.1 58 4.53 -0.6 22 33 1019.5 0 11.2 21.5 27.1 70.2 53.2 179.0
08/05 00:49 7.2 59 4.63 -0.3 24 28 1019.7 0 11.4 21.6 27.4 71.1 54.4 183.2
08/05 00:40 7.4 61 4.85 0.4 22 30 1019.6 0 11.8 21.9 28.2 73.2 57.0 192.3
08/05 00:30 7.5 63 5.04 0.9 22 30 1019.8 0 12.2 22.2 28.8 75.0 59.3 200.4
08/05 00:20 7.8 62 5.06 1 20 24 1019.8 0 12.3 22.2 28.8 74.9 59.3 200.5
08/05 00:10 7.9 62 5.09 1.1 20 26 1019.8 0 12.3 22.2 28.9 75.1 59.6 201.6
08/05 00:00 8.3 62 5.23 1.5 24 33 1019.8 0 12.6 22.3 29.3 76.2 61.1 206.7
07/05 23:49 8.3 66 5.57 2.3 24 30 1019.9 0 13.3 22.8 30.6 79.7 65.3 221.8
07/05 23:40 8.2 71 5.95 3.3 19 22 1019.8 0 14.2 23.4 32.1 83.7 70.3 239.2
07/05 23:30 8.7 70 6.06 3.5 26 35 1019.5 0 14.4 23.5 32.3 84.3 71.2 242.6
07/05 23:20 8.8 71 6.18 3.8 26 32 1019.7 0 14.6 23.6 32.7 85.4 72.7 247.7
07/05 23:10 9 70 6.17 3.8 20 24 1019.8 0 14.6 23.6 32.6 85.1 72.4 246.7
07/05 23:00 9.2 69 6.16 3.8 26 37 1019.5 0 14.6 23.5 32.5 84.8 72.1 245.5
07/05 22:50 9.5 68 6.19 3.9 28 33 1019.7 0 14.6 23.5 32.5 84.8 72.2 246.0
07/05 22:40 9.7 67 6.18 3.9 26 32 1019.7 0 14.6 23.4 32.4 84.5 71.9 244.9
07/05 22:30 9.9 66 6.16 3.9 30 44 1019.4 0 14.5 23.3 32.2 84.0 71.4 243.4
07/05 22:20 10.1 66 6.24 4 32 44 1019.3 0 14.7 23.4 32.4 84.6 72.3 246.3
07/05 22:10 10.3 67 6.42 4.5 35 46 1019.3 0 15.1 23.6 33.0 86.3 74.4 253.7
07/05 22:00 10.5 72 6.98 5.7 30 41 1019.3 0 16.3 24.4 35.2 91.9 81.4 278.4
07/05 21:50 10.7 71 6.98 5.7 35 41 1019.6 0 16.3 24.4 35.1 91.7 81.2 277.8
07/05 21:40 11.1 69 6.95 5.6 35 44 1019.6 0 16.2 24.2 34.8 90.9 80.4 275.0
07/05 21:30 11.3 67 6.84 5.4 28 41 1019.5 0 15.9 24.0 34.3 89.6 78.8 269.4
07/05 21:20 11.6 65 6.76 5.3 32 39 1019.3 0 15.8 23.8 33.8 88.4 77.4 264.7
07/05 21:10 11.7 64 6.69 5.1 26 33 1019.5 0 15.6 23.7 33.5 87.6 76.5 261.3
07/05 21:00 11.8 63 6.63 5 24 32 1019.2 0 15.5 23.5 33.2 86.8 75.6 258.3
07/05 20:50 11.9 61 6.46 4.6 20 24 1019.3 0 15.1 23.3 32.5 85.0 73.4 250.4
07/05 20:40 12 61 6.5 4.7 22 30 1019.3 0 15.2 23.3 32.7 85.3 73.8 251.9
07/05 20:30 12 60 6.4 4.5 24 33 1019.3 0 15.0 23.1 32.3 84.3 72.5 247.5
07/05 20:19 12.1 59 6.33 4.3 22 28 1019.2 0 14.8 23.0 32.0 83.4 71.6 244.1
07/05 20:10 12.3 57 6.19 4 24 28 1019.1 0 14.5 22.7 31.4 81.8 69.6 237.4

Last Refresh: 08-May-2026 12:10:13

Bureau of Meteorology